sensor_id;sensor_type;location;lat;lon;timestamp;pressure;altitude;pressure_sealevel;temperature;humidity
7052;BME280;3567;52.444;13.556;2023-11-19T00:00:30;101175.81;;;4.12;99.64
7052;BME280;3567;52.444;13.556;2023-11-19T00:02:55;101164.56;;;4.10;100.00
7052;BME280;3567;52.444;13.556;2023-11-19T00:05:20;101166.56;;;4.08;99.27
7052;BME280;3567;52.444;13.556;2023-11-19T00:07:46;101163.91;;;4.08;99.97
7052;BME280;3567;52.444;13.556;2023-11-19T00:10:15;101163.91;;;4.08;100.00
7052;BME280;3567;52.444;13.556;2023-11-19T00:12:46;101158.59;;;4.08;99.88
7052;BME280;3567;52.444;13.556;2023-11-19T00:15:13;101136.56;;;4.08;99.78
7052;BME280;3567;52.444;13.556;2023-11-19T00:17:42;101137.41;;;4.08;99.48
7052;BME280;3567;52.444;13.556;2023-11-19T00:20:14;101121.50;;;4.08;99.30
7052;BME280;3567;52.444;13.556;2023-11-19T00:22:40;101117.00;;;4.09;100.00
7052;BME280;3567;52.444;13.556;2023-11-19T00:25:07;101115.19;;;4.09;99.74
7052;BME280;3567;52.444;13.556;2023-11-19T00:27:32;101100.28;;;4.08;100.00
7052;BME280;3567;52.444;13.556;2023-11-19T00:29:58;101105.59;;;4.08;99.39
7052;BME280;3567;52.444;13.556;2023-11-19T00:32:23;101095.81;;;4.09;99.05
7052;BME280;3567;52.444;13.556;2023-11-19T00:34:49;101106.41;;;4.09;98.70
7052;BME280;3567;52.444;13.556;2023-11-19T00:37:14;101109.88;;;4.09;99.54
7052;BME280;3567;52.444;13.556;2023-11-19T00:39:43;101108.91;;;4.10;98.61
7052;BME280;3567;52.444;13.556;2023-11-19T00:42:09;101095.81;;;4.09;99.66
7052;BME280;3567;52.444;13.556;2023-11-19T00:44:35;101087.84;;;4.09;99.23
7052;BME280;3567;52.444;13.556;2023-11-19T00:47:01;101078.06;;;4.09;98.88
7052;BME280;3567;52.444;13.556;2023-11-19T00:49:26;101068.47;;;4.08;99.14
7052;BME280;3567;52.444;13.556;2023-11-19T00:51:52;101069.28;;;4.09;98.83
7052;BME280;3567;52.444;13.556;2023-11-19T00:54:17;101051.56;;;4.09;99.10
7052;BME280;3567;52.444;13.556;2023-11-19T00:56:42;101048.91;;;4.09;99.35
7052;BME280;3567;52.444;13.556;2023-11-19T00:59:08;101041.78;;;4.10;98.68
7052;BME280;3567;52.444;13.556;2023-11-19T01:01:33;101033.00;;;4.09;99.29
7052;BME280;3567;52.444;13.556;2023-11-19T01:03:59;101026.06;;;4.08;98.55
7052;BME280;3567;52.444;13.556;2023-11-19T01:06:31;101022.88;;;4.13;99.71
7052;BME280;3567;52.444;13.556;2023-11-19T01:08:56;101007.16;;;4.11;98.58
7052;BME280;3567;52.444;13.556;2023-11-19T01:11:23;100997.38;;;4.12;99.13
7052;BME280;3567;52.444;13.556;2023-11-19T01:13:49;101004.13;;;4.14;98.64
7052;BME280;3567;52.444;13.556;2023-11-19T01:16:15;100995.16;;;4.15;98.23
7052;BME280;3567;52.444;13.556;2023-11-19T01:18:40;100990.53;;;4.17;98.61
7052;BME280;3567;52.444;13.556;2023-11-19T01:21:06;100963.19;;;4.17;99.16
7052;BME280;3567;52.444;13.556;2023-11-19T01:23:31;100961.34;;;4.17;98.44
7052;BME280;3567;52.444;13.556;2023-11-19T01:25:58;100950.75;;;4.17;98.17
7052;BME280;3567;52.444;13.556;2023-11-19T01:28:23;100936.47;;;4.18;97.74
7052;BME280;3567;52.444;13.556;2023-11-19T01:30:50;100925.53;;;4.22;97.67
7052;BME280;3567;52.444;13.556;2023-11-19T01:33:16;100921.03;;;4.22;97.31
7052;BME280;3567;52.444;13.556;2023-11-19T01:35:41;100920.03;;;4.23;98.39
7052;BME280;3567;52.444;13.556;2023-11-19T01:38:07;100929.44;;;4.26;98.10
7052;BME280;3567;52.444;13.556;2023-11-19T01:40:34;100919.50;;;4.28;97.87
7052;BME280;3567;52.444;13.556;2023-11-19T01:42:59;100918.28;;;4.30;97.02
7052;BME280;3567;52.444;13.556;2023-11-19T01:45:28;100914.47;;;4.33;97.17
7052;BME280;3567;52.444;13.556;2023-11-19T01:47:56;100906.13;;;4.36;96.91
7052;BME280;3567;52.444;13.556;2023-11-19T01:50:22;100901.63;;;4.36;97.07
7052;BME280;3567;52.444;13.556;2023-11-19T01:52:51;100894.34;;;4.38;96.57
7052;BME280;3567;52.444;13.556;2023-11-19T01:55:17;100881.50;;;4.42;97.21
7052;BME280;3567;52.444;13.556;2023-11-19T01:57:44;100879.50;;;4.44;96.33
7052;BME280;3567;52.444;13.556;2023-11-19T02:00:10;100866.25;;;4.44;96.52
7052;BME280;3567;52.444;13.556;2023-11-19T02:02:37;100847.50;;;4.45;96.86
7052;BME280;3567;52.444;13.556;2023-11-19T02:05:02;100845.66;;;4.46;96.92
7052;BME280;3567;52.444;13.556;2023-11-19T02:07:28;100851.97;;;4.45;97.27
7052;BME280;3567;52.444;13.556;2023-11-19T02:09:54;100854.44;;;4.46;97.56
7052;BME280;3567;52.444;13.556;2023-11-19T02:12:19;100840.75;;;4.43;98.17
7052;BME280;3567;52.444;13.556;2023-11-19T02:14:45;100819.69;;;4.41;99.09
7052;BME280;3567;52.444;13.556;2023-11-19T02:17:30;100818.44;;;4.37;98.66
7052;BME280;3567;52.444;13.556;2023-11-19T02:20:00;100787.16;;;4.33;99.18
7052;BME280;3567;52.444;13.556;2023-11-19T02:22:25;100778.56;;;4.31;99.71
7052;BME280;3567;52.444;13.556;2023-11-19T02:24:54;100771.63;;;4.30;99.25
7052;BME280;3567;52.444;13.556;2023-11-19T02:27:48;100761.84;;;4.30;100.00
7052;BME280;3567;52.444;13.556;2023-11-19T02:30:16;100764.47;;;4.30;100.00
7052;BME280;3567;52.444;13.556;2023-11-19T02:32:42;100754.69;;;4.31;100.00
7052;BME280;3567;52.444;13.556;2023-11-19T02:35:08;100752.69;;;4.33;99.81
7052;BME280;3567;52.444;13.556;2023-11-19T02:37:34;100753.50;;;4.33;100.00
7052;BME280;3567;52.444;13.556;2023-11-19T02:39:59;100734.75;;;4.35;100.00
7052;BME280;3567;52.444;13.556;2023-11-19T02:42:28;100738.88;;;4.37;99.44
7052;BME280;3567;52.444;13.556;2023-11-19T02:44:53;100733.38;;;4.39;99.37
7052;BME280;3567;52.444;13.556;2023-11-19T02:47:18;100724.22;;;4.41;99.95
7052;BME280;3567;52.444;13.556;2023-11-19T02:49:46;100715.06;;;4.44;99.57
7052;BME280;3567;52.444;13.556;2023-11-19T02:52:13;100723.84;;;4.44;99.37
7052;BME280;3567;52.444;13.556;2023-11-19T02:54:39;100719.00;;;4.48;99.77
7052;BME280;3567;52.444;13.556;2023-11-19T02:57:06;100709.00;;;4.50;99.55
7052;BME280;3567;52.444;13.556;2023-11-19T02:59:35;100695.75;;;4.50;99.77
7052;BME280;3567;52.444;13.556;2023-11-19T03:02:05;100670.84;;;4.51;99.70
7052;BME280;3567;52.444;13.556;2023-11-19T03:04:33;100669.84;;;4.52;99.69
7052;BME280;3567;52.444;13.556;2023-11-19T03:06:58;100660.69;;;4.55;99.40
7052;BME280;3567;52.444;13.556;2023-11-19T03:09:23;100660.69;;;4.55;99.37
7052;BME280;3567;52.444;13.556;2023-11-19T03:11:49;100662.31;;;4.56;99.00
7052;BME280;3567;52.444;13.556;2023-11-19T03:14:15;100646.84;;;4.59;98.13
7052;BME280;3567;52.444;13.556;2023-11-19T03:16:40;100650.13;;;4.61;99.40
7052;BME280;3567;52.444;13.556;2023-11-19T03:19:05;100636.88;;;4.61;98.42
7052;BME280;3567;52.444;13.556;2023-11-19T03:21:31;100637.69;;;4.62;98.31
7052;BME280;3567;52.444;13.556;2023-11-19T03:23:57;100648.75;;;4.65;98.73
7052;BME280;3567;52.444;13.556;2023-11-19T03:26:26;100647.72;;;4.66;98.84
7052;BME280;3567;52.444;13.556;2023-11-19T03:28:52;100640.59;;;4.67;98.67
7052;BME280;3567;52.444;13.556;2023-11-19T03:31:17;100645.69;;;4.68;98.10
7052;BME280;3567;52.444;13.556;2023-11-19T03:33:42;100648.34;;;4.68;99.43
7052;BME280;3567;52.444;13.556;2023-11-19T03:36:08;100651.44;;;4.72;98.00
7052;BME280;3567;52.444;13.556;2023-11-19T03:38:34;100645.31;;;4.71;98.23
7052;BME280;3567;52.444;13.556;2023-11-19T03:40:59;100648.59;;;4.73;98.97
7052;BME280;3567;52.444;13.556;2023-11-19T03:43:25;100653.91;;;4.73;98.39
7052;BME280;3567;52.444;13.556;2023-11-19T03:45:50;100645.94;;;4.73;98.93
7052;BME280;3567;52.444;13.556;2023-11-19T03:48:15;100635.53;;;4.72;99.21
7052;BME280;3567;52.444;13.556;2023-11-19T03:50:41;100607.72;;;4.68;99.67
7052;BME280;3567;52.444;13.556;2023-11-19T03:53:07;100607.47;;;4.63;100.00
7052;BME280;3567;52.444;13.556;2023-11-19T03:55:32;100597.66;;;4.57;100.00
7052;BME280;3567;52.444;13.556;2023-11-19T03:57:58;100588.81;;;4.50;100.00
7052;BME280;3567;52.444;13.556;2023-11-19T04:00:23;100584.47;;;4.42;100.00
7052;BME280;3567;52.444;13.556;2023-11-19T04:02:49;100582.16;;;4.32;100.00
7052;BME280;3567;52.444;13.556;2023-11-19T04:05:14;100571.47;;;4.26;100.00
7052;BME280;3567;52.444;13.556;2023-11-19T04:07:39;100566.78;;;4.21;100.00
7052;BME280;3567;52.444;13.556;2023-11-19T04:10:05;100557.56;;;4.17;100.00
7052;BME280;3567;52.444;13.556;2023-11-19T04:12:30;100542.03;;;4.14;100.00
7052;BME280;3567;52.444;13.556;2023-11-19T04:14:56;100531.97;;;4.09;100.00
7052;BME280;3567;52.444;13.556;2023-11-19T04:17:21;100506.69;;;4.07;100.00
7052;BME280;3567;52.444;13.556;2023-11-19T04:19:48;100502.41;;;4.06;100.00
7052;BME280;3567;52.444;13.556;2023-11-19T04:22:13;100511.34;;;4.05;100.00
7052;BME280;3567;52.444;13.556;2023-11-19T04:24:39;100497.47;;;4.03;100.00
7052;BME280;3567;52.444;13.556;2023-11-19T04:27:05;100491.38;;;4.02;100.00
7052;BME280;3567;52.444;13.556;2023-11-19T04:29:31;100477.28;;;4.02;100.00
7052;BME280;3567;52.444;13.556;2023-11-19T04:31:57;100471.19;;;4.01;100.00
7052;BME280;3567;52.444;13.556;2023-11-19T04:34:23;100477.28;;;4.02;100.00
7052;BME280;3567;52.444;13.556;2023-11-19T04:36:49;100461.59;;;4.00;100.00
7052;BME280;3567;52.444;13.556;2023-11-19T04:39:14;100463.22;;;4.01;100.00
7052;BME280;3567;52.444;13.556;2023-11-19T04:41:51;100457.28;;;3.99;100.00
7052;BME280;3567;52.444;13.556;2023-11-19T04:44:19;100442.22;;;4.00;100.00
7052;BME280;3567;52.444;13.556;2023-11-19T04:46:45;100452.63;;;4.01;100.00
7052;BME280;3567;52.444;13.556;2023-11-19T04:49:11;100461.41;;;4.02;100.00
7052;BME280;3567;52.444;13.556;2023-11-19T04:51:44;100470.97;;;4.03;100.00
7052;BME280;3567;52.444;13.556;2023-11-19T04:54:12;100477.09;;;4.03;100.00
7052;BME280;3567;52.444;13.556;2023-11-19T04:56:37;100479.75;;;4.03;100.00
7052;BME280;3567;52.444;13.556;2023-11-19T04:59:03;100484.03;;;4.04;100.00
7052;BME280;3567;52.444;13.556;2023-11-19T05:01:33;100467.13;;;4.05;100.00
7052;BME280;3567;52.444;13.556;2023-11-19T05:03:58;100461.19;;;4.03;100.00
7052;BME280;3567;52.444;13.556;2023-11-19T05:06:31;100458.75;;;4.02;100.00
7052;BME280;3567;52.444;13.556;2023-11-19T05:08:59;100445.69;;;4.00;100.00
7052;BME280;3567;52.444;13.556;2023-11-19T05:11:35;100433.44;;;3.99;100.00
7052;BME280;3567;52.444;13.556;2023-11-19T05:14:02;100423.22;;;3.96;100.00
7052;BME280;3567;52.444;13.556;2023-11-19T05:16:29;100415.47;;;3.94;100.00
7052;BME280;3567;52.444;13.556;2023-11-19T05:18:54;100409.53;;;3.92;100.00
7052;BME280;3567;52.444;13.556;2023-11-19T05:21:19;100411.38;;;3.92;100.00
7052;BME280;3567;52.444;13.556;2023-11-19T05:23:45;100406.28;;;3.90;100.00
7052;BME280;3567;52.444;13.556;2023-11-19T05:26:21;100385.28;;;3.89;100.00
7052;BME280;3567;52.444;13.556;2023-11-19T05:28:47;100391.97;;;3.85;100.00
7052;BME280;3567;52.444;13.556;2023-11-19T05:31:13;100367.69;;;3.81;100.00
7052;BME280;3567;52.444;13.556;2023-11-19T05:33:38;100372.16;;;3.81;100.00
7052;BME280;3567;52.444;13.556;2023-11-19T05:36:05;100367.25;;;3.78;100.00
7052;BME280;3567;52.444;13.556;2023-11-19T05:38:30;100378.84;;;3.77;100.00
7052;BME280;3567;52.444;13.556;2023-11-19T05:40:56;100372.72;;;3.76;100.00
7052;BME280;3567;52.444;13.556;2023-11-19T05:43:21;100358.69;;;3.76;100.00
7052;BME280;3567;52.444;13.556;2023-11-19T05:45:47;100351.75;;;3.75;100.00
7052;BME280;3567;52.444;13.556;2023-11-19T05:48:12;100344.81;;;3.74;100.00
7052;BME280;3567;52.444;13.556;2023-11-19T05:50:38;100355.41;;;3.74;100.00
7052;BME280;3567;52.444;13.556;2023-11-19T05:53:04;100342.97;;;3.74;100.00
7052;BME280;3567;52.444;13.556;2023-11-19T05:55:33;100346.25;;;3.76;100.00
7052;BME280;3567;52.444;13.556;2023-11-19T05:57:59;100337.47;;;3.76;100.00
7052;BME280;3567;52.444;13.556;2023-11-19T06:00:24;100341.59;;;3.78;100.00
7052;BME280;3567;52.444;13.556;2023-11-19T06:02:51;100325.69;;;3.78;100.00
7052;BME280;3567;52.444;13.556;2023-11-19T06:05:17;100316.91;;;3.78;100.00
7052;BME280;3567;52.444;13.556;2023-11-19T06:07:43;100311.44;;;3.79;100.00
7052;BME280;3567;52.444;13.556;2023-11-19T06:10:08;100305.13;;;3.80;100.00
7052;BME280;3567;52.444;13.556;2023-11-19T06:12:35;100301.66;;;3.80;100.00
7052;BME280;3567;52.444;13.556;2023-11-19T06:15:07;100297.59;;;3.84;100.00
7052;BME280;3567;52.444;13.556;2023-11-19T06:17:33;100287.00;;;3.84;100.00
7052;BME280;3567;52.444;13.556;2023-11-19T06:19:59;100294.75;;;3.85;100.00
7052;BME280;3567;52.444;13.556;2023-11-19T06:22:24;100302.50;;;3.87;100.00
7052;BME280;3567;52.444;13.556;2023-11-19T06:24:49;100289.88;;;3.89;100.00
7052;BME280;3567;52.444;13.556;2023-11-19T06:27:15;100279.28;;;3.89;100.00
7052;BME280;3567;52.444;13.556;2023-11-19T06:29:40;100276.44;;;3.90;100.00
7052;BME280;3567;52.444;13.556;2023-11-19T06:32:06;100271.13;;;3.90;100.00
7052;BME280;3567;52.444;13.556;2023-11-19T06:34:33;100251.56;;;3.91;100.00
7052;BME280;3567;52.444;13.556;2023-11-19T06:36:58;100249.72;;;3.92;100.00
7052;BME280;3567;52.444;13.556;2023-11-19T06:39:24;100253.19;;;3.92;100.00
7052;BME280;3567;52.444;13.556;2023-11-19T06:41:50;100252.00;;;3.95;100.00
7052;BME280;3567;52.444;13.556;2023-11-19T06:44:15;100269.75;;;3.94;100.00
7052;BME280;3567;52.444;13.556;2023-11-19T06:46:41;100273.81;;;3.97;100.00
7052;BME280;3567;52.444;13.556;2023-11-19T06:49:06;100268.50;;;3.97;100.00
7052;BME280;3567;52.444;13.556;2023-11-19T06:51:33;100246.28;;;3.98;100.00
7052;BME280;3567;52.444;13.556;2023-11-19T06:53:59;100245.91;;;4.01;100.00
7052;BME280;3567;52.444;13.556;2023-11-19T06:56:25;100228.16;;;4.02;100.00
7052;BME280;3567;52.444;13.556;2023-11-19T06:58:51;100236.94;;;4.02;100.00
7052;BME280;3567;52.444;13.556;2023-11-19T07:01:17;100236.94;;;4.02;100.00
7052;BME280;3567;52.444;13.556;2023-11-19T07:03:46;100232.88;;;4.06;100.00
7052;BME280;3567;52.444;13.556;2023-11-19T07:06:12;100228.19;;;4.08;100.00
7052;BME280;3567;52.444;13.556;2023-11-19T07:08:38;100222.69;;;4.10;100.00
7052;BME280;3567;52.444;13.556;2023-11-19T07:11:04;100218.63;;;4.14;100.00
7052;BME280;3567;52.444;13.556;2023-11-19T07:13:29;100227.22;;;4.16;100.00
7052;BME280;3567;52.444;13.556;2023-11-19T07:15:55;100227.00;;;4.17;100.00
7052;BME280;3567;52.444;13.556;2023-11-19T07:18:21;100227.00;;;4.17;100.00
7052;BME280;3567;52.444;13.556;2023-11-19T07:20:48;100233.94;;;4.18;100.00
7052;BME280;3567;52.444;13.556;2023-11-19T07:23:13;100237.84;;;4.23;100.00
7052;BME280;3567;52.444;13.556;2023-11-19T07:25:39;100234.97;;;4.24;100.00
7052;BME280;3567;52.444;13.556;2023-11-19T07:28:05;100230.31;;;4.26;100.00
7052;BME280;3567;52.444;13.556;2023-11-19T07:30:30;100237.03;;;4.29;100.00
7052;BME280;3567;52.444;13.556;2023-11-19T07:32:55;100241.31;;;4.30;100.00
7052;BME280;3567;52.444;13.556;2023-11-19T07:35:21;100239.28;;;4.32;100.00
7052;BME280;3567;52.444;13.556;2023-11-19T07:37:46;100236.66;;;4.32;100.00
7052;BME280;3567;52.444;13.556;2023-11-19T07:40:13;100232.75;;;4.34;100.00
7052;BME280;3567;52.444;13.556;2023-11-19T07:42:38;100229.72;;;4.37;100.00
7052;BME280;3567;52.444;13.556;2023-11-19T07:45:04;100229.50;;;4.39;100.00
7052;BME280;3567;52.444;13.556;2023-11-19T07:47:30;100236.44;;;4.40;100.00
7052;BME280;3567;52.444;13.556;2023-11-19T07:49:56;100241.16;;;4.44;100.00
7052;BME280;3567;52.444;13.556;2023-11-19T07:52:21;100233.00;;;4.46;100.00
7052;BME280;3567;52.444;13.556;2023-11-19T07:54:46;100238.72;;;4.50;100.00
7052;BME280;3567;52.444;13.556;2023-11-19T07:57:12;100236.50;;;4.53;100.00
7052;BME280;3567;52.444;13.556;2023-11-19T07:59:37;100221.19;;;4.55;100.00
7052;BME280;3567;52.444;13.556;2023-11-19T08:02:02;100222.59;;;4.58;100.00
7052;BME280;3567;52.444;13.556;2023-11-19T08:04:28;100238.72;;;4.63;100.00
7052;BME280;3567;52.444;13.556;2023-11-19T08:06:54;100230.16;;;4.67;100.00
7052;BME280;3567;52.444;13.556;2023-11-19T08:09:19;100221.19;;;4.68;100.00
7052;BME280;3567;52.444;13.556;2023-11-19T08:11:44;100231.41;;;4.71;100.00
7052;BME280;3567;52.444;13.556;2023-11-19T08:14:11;100244.88;;;4.77;100.00
7052;BME280;3567;52.444;13.556;2023-11-19T08:16:36;100232.84;;;4.81;100.00
7052;BME280;3567;52.444;13.556;2023-11-19T08:19:03;100217.53;;;4.83;100.00
7052;BME280;3567;52.444;13.556;2023-11-19T08:21:29;100225.09;;;4.86;100.00
7052;BME280;3567;52.444;13.556;2023-11-19T08:23:54;100212.22;;;4.89;100.00
7052;BME280;3567;52.444;13.556;2023-11-19T08:26:19;100218.53;;;4.95;100.00
7052;BME280;3567;52.444;13.556;2023-11-19T08:28:45;100202.22;;;4.98;100.00
7052;BME280;3567;52.444;13.556;2023-11-19T08:31:10;100197.50;;;5.00;100.00
7052;BME280;3567;52.444;13.556;2023-11-19T08:33:35;100210.19;;;5.05;100.00
7052;BME280;3567;52.444;13.556;2023-11-19T08:36:01;100214.06;;;5.09;100.00
7052;BME280;3567;52.444;13.556;2023-11-19T08:38:27;100204.47;;;5.14;100.00
7052;BME280;3567;52.444;13.556;2023-11-19T08:40:52;100197.28;;;5.21;100.00
7052;BME280;3567;52.444;13.556;2023-11-19T08:43:17;100192.59;;;5.23;100.00
7052;BME280;3567;52.444;13.556;2023-11-19T08:45:43;100172.59;;;5.28;100.00
7052;BME280;3567;52.444;13.556;2023-11-19T08:48:08;100183.19;;;5.34;100.00
7052;BME280;3567;52.444;13.556;2023-11-19T08:50:34;100188.88;;;5.38;100.00
7052;BME280;3567;52.444;13.556;2023-11-19T08:53:00;100189.06;;;5.43;100.00
7052;BME280;3567;52.444;13.556;2023-11-19T08:55:25;100189.69;;;5.51;100.00
7052;BME280;3567;52.444;13.556;2023-11-19T08:57:51;100191.31;;;5.52;100.00
7052;BME280;3567;52.444;13.556;2023-11-19T09:00:17;100192.94;;;5.60;100.00
7052;BME280;3567;52.444;13.556;2023-11-19T09:02:43;100183.50;;;5.64;100.00
7052;BME280;3567;52.444;13.556;2023-11-19T09:05:08;100196.56;;;5.72;100.00
7052;BME280;3567;52.444;13.556;2023-11-19T09:07:33;100195.72;;;5.78;100.00
7052;BME280;3567;52.444;13.556;2023-11-19T09:09:59;100194.28;;;5.83;100.00
7052;BME280;3567;52.444;13.556;2023-11-19T09:12:24;100184.66;;;5.88;100.00
7052;BME280;3567;52.444;13.556;2023-11-19T09:14:49;100183.41;;;5.91;100.00
7052;BME280;3567;52.444;13.556;2023-11-19T09:17:15;100185.69;;;5.94;100.00
7052;BME280;3567;52.444;13.556;2023-11-19T09:19:41;100182.38;;;5.98;100.00
7052;BME280;3567;52.444;13.556;2023-11-19T09:22:07;100181.31;;;6.06;100.00
7052;BME280;3567;52.444;13.556;2023-11-19T09:24:32;100183.28;;;6.17;100.00
7052;BME280;3567;52.444;13.556;2023-11-19T09:26:57;100185.72;;;6.25;100.00
7052;BME280;3567;52.444;13.556;2023-11-19T09:29:22;100182.78;;;6.34;100.00
7052;BME280;3567;52.444;13.556;2023-11-19T09:31:49;100185.59;;;6.45;100.00
7052;BME280;3567;52.444;13.556;2023-11-19T09:34:14;100181.63;;;6.61;100.00
7052;BME280;3567;52.444;13.556;2023-11-19T09:36:39;100179.22;;;6.78;100.00
7052;BME280;3567;52.444;13.556;2023-11-19T09:39:09;100184.59;;;6.96;100.00
7052;BME280;3567;52.444;13.556;2023-11-19T09:41:34;100187.06;;;7.16;100.00
7052;BME280;3567;52.444;13.556;2023-11-19T09:44:00;100180.78;;;7.29;100.00
7052;BME280;3567;52.444;13.556;2023-11-19T09:46:26;100181.34;;;7.38;100.00
7052;BME280;3567;52.444;13.556;2023-11-19T09:48:55;100184.72;;;7.45;100.00
7052;BME280;3567;52.444;13.556;2023-11-19T09:51:21;100179.72;;;7.55;100.00
7052;BME280;3567;52.444;13.556;2023-11-19T09:53:49;100167.56;;;7.59;100.00
7052;BME280;3567;52.444;13.556;2023-11-19T09:56:15;100168.88;;;7.86;100.00
7052;BME280;3567;52.444;13.556;2023-11-19T09:58:42;100182.25;;;8.47;100.00
7052;BME280;3567;52.444;13.556;2023-11-19T10:01:07;100181.06;;;8.84;100.00
7052;BME280;3567;52.444;13.556;2023-11-19T10:03:36;100168.03;;;8.88;100.00
7052;BME280;3567;52.444;13.556;2023-11-19T10:06:08;100167.91;;;8.83;100.00
7052;BME280;3567;52.444;13.556;2023-11-19T10:08:37;100167.47;;;8.74;100.00
7052;BME280;3567;52.444;13.556;2023-11-19T10:11:04;100169.09;;;8.75;100.00
7052;BME280;3567;52.444;13.556;2023-11-19T10:13:30;100166.84;;;8.72;100.00
7052;BME280;3567;52.444;13.556;2023-11-19T10:15:56;100168.28;;;8.75;100.00
7052;BME280;3567;52.444;13.556;2023-11-19T10:18:26;100169.91;;;8.76;100.00
7052;BME280;3567;52.444;13.556;2023-11-19T10:20:51;100163.06;;;8.80;100.00
7052;BME280;3567;52.444;13.556;2023-11-19T10:23:17;100160.72;;;8.83;100.00
7052;BME280;3567;52.444;13.556;2023-11-19T10:25:42;100157.47;;;8.93;100.00
7052;BME280;3567;52.444;13.556;2023-11-19T10:28:07;100158.63;;;9.09;100.00
7052;BME280;3567;52.444;13.556;2023-11-19T10:30:33;100162.00;;;9.16;100.00
7052;BME280;3567;52.444;13.556;2023-11-19T10:33:13;100154.69;;;9.23;100.00
7052;BME280;3567;52.444;13.556;2023-11-19T10:35:58;100147.13;;;9.43;100.00
7052;BME280;3567;52.444;13.556;2023-11-19T10:38:27;100148.47;;;9.58;100.00
7052;BME280;3567;52.444;13.556;2023-11-19T10:40:53;100146.22;;;9.78;100.00
7052;BME280;3567;52.444;13.556;2023-11-19T10:43:20;100143.63;;;10.23;100.00
7052;BME280;3567;52.444;13.556;2023-11-19T10:45:49;100151.94;;;10.56;100.00
7052;BME280;3567;52.444;13.556;2023-11-19T10:48:14;100142.84;;;10.57;100.00
7052;BME280;3567;52.444;13.556;2023-11-19T10:50:41;100131.50;;;10.49;100.00
7052;BME280;3567;52.444;13.556;2023-11-19T10:53:09;100129.53;;;10.45;100.00
7052;BME280;3567;52.444;13.556;2023-11-19T10:55:36;100134.38;;;10.48;100.00
7052;BME280;3567;52.444;13.556;2023-11-19T10:58:08;100122.47;;;10.56;100.00
7052;BME280;3567;52.444;13.556;2023-11-19T11:00:38;100119.16;;;10.65;100.00
7052;BME280;3567;52.444;13.556;2023-11-19T11:03:18;100118.75;;;10.73;100.00
7052;BME280;3567;52.444;13.556;2023-11-19T11:05:47;100114.78;;;10.76;100.00
7052;BME280;3567;52.444;13.556;2023-11-19T11:08:13;100120.94;;;10.77;100.00
7052;BME280;3567;52.444;13.556;2023-11-19T11:10:53;100115.25;;;10.56;100.00
7052;BME280;3567;52.444;13.556;2023-11-19T11:13:19;100122.41;;;10.51;100.00
7052;BME280;3567;52.444;13.556;2023-11-19T11:15:45;100130.09;;;10.47;100.00
7052;BME280;3567;52.444;13.556;2023-11-19T11:18:12;100123.38;;;10.44;100.00
7052;BME280;3567;52.444;13.556;2023-11-19T11:20:39;100124.09;;;10.40;100.00
7052;BME280;3567;52.444;13.556;2023-11-19T11:26:05;100124.88;;;10.23;100.00
7052;BME280;3567;52.444;13.556;2023-11-19T11:28:43;100116.31;;;10.10;100.00
7052;BME280;3567;52.444;13.556;2023-11-19T11:31:54;100120.38;;;10.12;100.00
7052;BME280;3567;52.444;13.556;2023-11-19T11:34:41;100125.94;;;10.11;100.00
7052;BME280;3567;52.444;13.556;2023-11-19T11:37:36;100117.44;;;10.14;100.00
7052;BME280;3567;52.444;13.556;2023-11-19T11:40:03;100126.72;;;10.23;100.00
7052;BME280;3567;52.444;13.556;2023-11-19T11:42:36;100122.53;;;10.27;100.00
7052;BME280;3567;52.444;13.556;2023-11-19T11:45:05;100125.88;;;10.34;100.00
7052;BME280;3567;52.444;13.556;2023-11-19T11:50:12;100121.16;;;10.41;100.00
7052;BME280;3567;52.444;13.556;2023-11-19T11:55:28;100112.50;;;10.68;100.00
7052;BME280;3567;52.444;13.556;2023-11-19T11:57:55;100119.97;;;10.83;100.00
7052;BME280;3567;52.444;13.556;2023-11-19T12:02:51;100105.13;;;10.97;100.00
7052;BME280;3567;52.444;13.556;2023-11-19T12:05:17;100101.56;;;11.08;100.00
7052;BME280;3567;52.444;13.556;2023-11-19T12:07:58;100100.50;;;11.09;100.00
7052;BME280;3567;52.444;13.556;2023-11-19T12:10:28;100091.59;;;11.04;100.00
7052;BME280;3567;52.444;13.556;2023-11-19T12:12:58;100098.19;;;11.18;100.00
7052;BME280;3567;52.444;13.556;2023-11-19T12:15:23;100104.47;;;11.07;100.00
7052;BME280;3567;52.444;13.556;2023-11-19T12:17:50;100098.63;;;11.10;100.00
7052;BME280;3567;52.444;13.556;2023-11-19T12:20:18;100098.06;;;11.08;100.00
7052;BME280;3567;52.444;13.556;2023-11-19T12:22:45;100101.16;;;10.99;100.00
7052;BME280;3567;52.444;13.556;2023-11-19T12:25:12;100104.41;;;11.01;100.00
7052;BME280;3567;52.444;13.556;2023-11-19T12:27:47;100110.91;;;11.06;100.00
7052;BME280;3567;52.444;13.556;2023-11-19T12:30:23;100105.66;;;10.94;100.00
7052;BME280;3567;52.444;13.556;2023-11-19T12:32:52;100098.69;;;10.93;100.00
7052;BME280;3567;52.444;13.556;2023-11-19T12:35:21;100101.28;;;10.88;100.00
7052;BME280;3567;52.444;13.556;2023-11-19T12:37:49;100094.84;;;10.89;100.00
7052;BME280;3567;52.444;13.556;2023-11-19T12:40:22;100097.88;;;10.92;100.00
7052;BME280;3567;52.444;13.556;2023-11-19T12:42:48;100094.94;;;10.94;100.00
7052;BME280;3567;52.444;13.556;2023-11-19T12:45:15;100105.81;;;10.87;100.00
7052;BME280;3567;52.444;13.556;2023-11-19T12:47:42;100100.94;;;10.84;100.00
7052;BME280;3567;52.444;13.556;2023-11-19T12:50:09;100100.31;;;10.77;100.00
7052;BME280;3567;52.444;13.556;2023-11-19T12:52:38;100100.53;;;10.75;100.00
7052;BME280;3567;52.444;13.556;2023-11-19T12:55:25;100092.44;;;10.70;100.00
7052;BME280;3567;52.444;13.556;2023-11-19T12:57:51;100100.25;;;10.72;100.00
7052;BME280;3567;52.444;13.556;2023-11-19T13:00:23;100095.88;;;10.66;100.00
7052;BME280;3567;52.444;13.556;2023-11-19T13:02:50;100094.81;;;10.67;100.00
7052;BME280;3567;52.444;13.556;2023-11-19T13:07:48;100100.06;;;10.62;100.00
7052;BME280;3567;52.444;13.556;2023-11-19T13:10:13;100102.16;;;10.60;100.00
7052;BME280;3567;52.444;13.556;2023-11-19T13:12:39;100102.75;;;10.62;100.00